Time;durP1;ratioP1;P1;durP2;ratioP2;P2;SDS_P1;SDS_P2;PMS_P1;PMS_P2;Temp;Humidity;BMP_temperature;BMP_pressure;BME280_temperature;BME280_humidity;BME280_pressure;Samples;Min_cycle;Max_cycle;Signal;HPM_P1;HPM_P2
2024/03/25 00:02:09;;;;;;;;;;;;;;;9.35;49.35;99074.25;4948313;27;98295;-71
2024/03/25 00:04:36;;;;;;;;;;;;;;;9.35;48.78;99074.25;4946541;27;100420;-72
2024/03/25 00:07:03;;;;;;;;;;;;;;;9.35;49.36;99079.63;4963072;27;98836;-71
2024/03/25 00:09:29;;;;;;;;;;;;;;;9.34;49.39;99088.81;4945596;27;98119;-68
2024/03/25 00:11:55;;;;;;;;;;;;;;;9.34;49.37;99084.22;4966205;27;98141;-72
2024/03/25 00:14:23;;;;;;;;;;;;;;;9.33;49.04;99079.94;4952157;27;99409;-72
2024/03/25 00:16:49;;;;;;;;;;;;;;;9.33;49.41;99085.31;4950872;27;98090;-68
2024/03/25 00:19:17;;;;;;;;;;;;;;;9.33;49.47;99076.44;4951930;27;100604;-72
2024/03/25 00:21:44;;;;;;;;;;;;;;;9.33;49.11;99087.22;4982852;27;99181;-69
2024/03/25 00:24:11;;;;;;;;;;;;;;;9.32;49.30;99091.78;4951212;27;97960;-72
2024/03/25 00:26:39;;;;;;;;;;;;;;;9.32;48.76;99088.31;4953954;27;100210;-68
2024/03/25 00:29:05;;;;;;;;;;;;;;;9.31;48.91;99092.06;4955151;27;98065;-68
2024/03/25 00:31:32;;;;;;;;;;;;;;;9.30;49.49;99080.50;4946202;27;98010;-72
2024/03/25 00:33:59;;;;;;;;;;;;;;;9.31;49.14;99084.00;4950477;27;98230;-72
2024/03/25 00:36:26;;;;;;;;;;;;;;;9.35;49.08;99079.63;4947211;27;99449;-72
2024/03/25 00:38:53;;;;;;;;;;;;;;;9.41;49.71;99093.81;4945849;27;99368;-68
2024/03/25 00:41:19;;;;;;;;;;;;;;;9.46;49.20;99089.16;4954583;27;98831;-73
2024/03/25 00:43:46;;;;;;;;;;;;;;;9.51;49.12;99091.78;4952261;27;99770;-73
2024/03/25 00:46:13;;;;;;;;;;;;;;;9.55;49.08;99083.94;4950578;27;98332;-73
2024/03/25 00:48:41;;;;;;;;;;;;;;;9.58;49.81;99084.09;4967327;27;99069;-73
2024/03/25 00:51:08;;;;;;;;;;;;;;;9.61;49.22;99085.44;4967842;27;99415;-68
2024/03/25 00:53:34;;;;;;;;;;;;;;;9.62;49.66;99089.69;4966447;27;99883;-73
2024/03/25 00:56:01;;;;;;;;;;;;;;;9.63;49.75;99090.50;4949243;27;98476;-68
2024/03/25 00:58:27;;;;;;;;;;;;;;;9.64;49.66;99089.44;4950401;27;98015;-73
2024/03/25 01:00:54;;;;;;;;;;;;;;;9.63;49.83;99079.75;4952138;27;97983;-73
2024/03/25 01:03:21;;;;;;;;;;;;;;;9.63;49.25;99094.00;4956273;28;98289;-68
2024/03/25 01:05:47;;;;;;;;;;;;;;;9.64;49.65;99098.28;4947093;27;98145;-68
2024/03/25 01:08:15;;;;;;;;;;;;;;;9.65;48.89;99096.41;4962813;27;99387;-73
2024/03/25 01:10:41;;;;;;;;;;;;;;;9.64;49.31;99092.13;4965712;27;98084;-73
2024/03/25 01:13:07;;;;;;;;;;;;;;;9.64;49.06;99095.59;4952238;27;98208;-73
2024/03/25 01:15:34;;;;;;;;;;;;;;;9.64;49.39;99097.50;4951226;27;98454;-68
2024/03/25 01:18:01;;;;;;;;;;;;;;;9.63;49.10;99087.81;4947456;27;98632;-73
2024/03/25 01:20:28;;;;;;;;;;;;;;;9.62;49.13;99095.09;4954369;27;98088;-73
2024/03/25 01:22:55;;;;;;;;;;;;;;;9.62;49.48;99099.66;4952239;27;98553;-73
2024/03/25 01:25:22;;;;;;;;;;;;;;;9.62;49.26;99103.16;4946131;27;98375;-68
2024/03/25 01:27:49;;;;;;;;;;;;;;;9.61;49.40;99100.78;4953085;27;99169;-72
2024/03/25 01:30:15;;;;;;;;;;;;;;;9.60;49.30;99102.66;4946319;27;97906;-73
2024/03/25 01:32:42;;;;;;;;;;;;;;;9.59;49.46;99103.75;4949275;27;99534;-67
2024/03/25 01:35:09;;;;;;;;;;;;;;;9.59;49.51;99109.16;4969256;27;99627;-73
2024/03/25 01:37:36;;;;;;;;;;;;;;;9.58;49.63;99105.63;4955228;27;98136;-68
2024/03/25 01:40:04;;;;;;;;;;;;;;;9.58;49.23;99112.91;4963336;27;97963;-72
2024/03/25 01:42:30;;;;;;;;;;;;;;;9.56;49.32;99105.13;4971006;27;98264;-68
2024/03/25 01:44:57;;;;;;;;;;;;;;;9.56;49.89;99115.09;4952533;27;100386;-72
2024/03/25 01:47:24;;;;;;;;;;;;;;;9.56;49.03;99123.19;4954882;27;98241;-68
2024/03/25 01:49:53;;;;;;;;;;;;;;;9.54;49.46;99120.75;4949711;27;98235;-68
2024/03/25 01:52:20;;;;;;;;;;;;;;;9.53;49.66;99110.31;4951002;27;98035;-72
2024/03/25 01:54:47;;;;;;;;;;;;;;;9.53;49.13;99118.38;4953315;27;98088;-72
2024/03/25 01:57:14;;;;;;;;;;;;;;;9.53;49.56;99121.06;4964342;27;99149;-72
2024/03/25 01:59:41;;;;;;;;;;;;;;;9.52;49.29;99125.66;4959026;27;98060;-72
2024/03/25 02:02:10;;;;;;;;;;;;;;;9.51;49.53;99118.69;4966038;27;98169;-68
2024/03/25 02:04:38;;;;;;;;;;;;;;;9.51;49.55;99132.13;4959296;27;98106;-68
2024/03/25 02:07:05;;;;;;;;;;;;;;;9.48;48.88;99129.22;4958195;27;99541;-68
2024/03/25 02:09:32;;;;;;;;;;;;;;;9.48;49.22;99137.28;4950770;27;99640;-72
2024/03/25 02:12:00;;;;;;;;;;;;;;;9.46;49.12;99132.19;4960401;27;98157;-68
2024/03/25 02:14:26;;;;;;;;;;;;;;;9.46;49.69;99139.47;4968644;27;98137;-72
2024/03/25 02:16:53;;;;;;;;;;;;;;;9.44;49.63;99139.75;4948605;27;98402;-68
2024/03/25 02:19:21;;;;;;;;;;;;;;;9.45;49.43;99140.56;4970530;27;99670;-68
2024/03/25 02:21:47;;;;;;;;;;;;;;;9.44;48.92;99134.38;4950629;27;100177;-72
2024/03/25 02:24:15;;;;;;;;;;;;;;;9.44;49.85;99144.34;4948161;27;98916;-72
2024/03/25 02:26:42;;;;;;;;;;;;;;;9.42;49.86;99141.94;4951378;27;99508;-72
2024/03/25 02:29:12;;;;;;;;;;;;;;;9.41;48.90;99153.78;4952261;27;98334;-68
2024/03/25 02:31:39;;;;;;;;;;;;;;;9.41;49.37;99155.69;4951965;27;98338;-68
2024/03/25 02:34:06;;;;;;;;;;;;;;;9.39;49.56;99152.47;4953642;27;98027;-68
2024/03/25 02:36:32;;;;;;;;;;;;;;;9.38;49.80;99162.44;4953093;27;100021;-68
2024/03/25 02:39:00;;;;;;;;;;;;;;;9.39;49.24;99164.03;4946370;27;98089;-68
2024/03/25 02:41:30;;;;;;;;;;;;;;;9.37;50.10;99155.47;4958001;27;98417;-68
2024/03/25 02:43:57;;;;;;;;;;;;;;;9.37;49.76;99160.84;4949460;27;98159;-68
2024/03/25 02:46:24;;;;;;;;;;;;;;;9.37;49.29;99168.09;4953617;27;98457;-73
2024/03/25 02:48:51;;;;;;;;;;;;;;;9.36;49.58;99163.81;4966701;27;98193;-68
2024/03/25 02:51:18;;;;;;;;;;;;;;;9.34;49.54;99169.47;4961521;27;97971;-73
2024/03/25 02:53:45;;;;;;;;;;;;;;;9.34;50.07;99170.28;4949249;27;98122;-68
2024/03/25 02:56:12;;;;;;;;;;;;;;;9.33;49.63;99179.44;4947511;27;98011;-67
2024/03/25 02:58:39;;;;;;;;;;;;;;;9.33;49.57;99182.13;4951787;27;98436;-73
2024/03/25 03:01:06;;;;;;;;;;;;;;;9.32;49.78;99187.81;4948885;27;98507;-73
2024/03/25 03:03:33;;;;;;;;;;;;;;;9.32;49.21;99204.75;4950248;27;99265;-73
2024/03/25 03:06:00;;;;;;;;;;;;;;;9.30;49.22;99209.59;4949433;27;98354;-72
2024/03/25 03:08:27;;;;;;;;;;;;;;;9.30;48.99;99211.50;4961044;27;98040;-68
2024/03/25 03:10:54;;;;;;;;;;;;;;;9.30;49.02;99208.78;4944610;27;98087;-73
2024/03/25 03:13:21;;;;;;;;;;;;;;;9.28;49.07;99217.16;4945807;27;98488;-72
2024/03/25 03:15:48;;;;;;;;;;;;;;;9.28;49.26;99219.84;4952358;27;97999;-68
2024/03/25 03:18:15;;;;;;;;;;;;;;;9.27;49.64;99220.91;4947915;27;98227;-68
2024/03/25 03:20:43;;;;;;;;;;;;;;;9.26;49.52;99216.63;4946010;27;98248;-73
2024/03/25 03:23:10;;;;;;;;;;;;;;;9.26;49.44;99227.41;4945938;27;97981;-68
2024/03/25 03:25:37;;;;;;;;;;;;;;;9.26;49.54;99229.28;4945913;27;98310;-72
2024/03/25 03:28:04;;;;;;;;;;;;;;;9.26;49.27;99237.34;4948982;27;100257;-72
2024/03/25 03:30:30;;;;;;;;;;;;;;;9.25;48.91;99235.75;4970717;27;98132;-68
2024/03/25 03:32:57;;;;;;;;;;;;;;;9.24;49.22;99234.97;4946386;27;98213;-68
2024/03/25 03:35:23;;;;;;;;;;;;;;;9.24;49.59;99240.34;4946374;27;99074;-72
2024/03/25 03:37:49;;;;;;;;;;;;;;;9.23;49.62;99238.72;4948374;27;98067;-68
2024/03/25 03:40:17;;;;;;;;;;;;;;;9.24;49.75;99242.25;4952707;27;98947;-68
2024/03/25 03:42:43;;;;;;;;;;;;;;;9.24;50.01;99250.31;4934703;28;99540;-68
2024/03/25 03:45:10;;;;;;;;;;;;;;;9.23;49.28;99246.00;4942049;27;98537;-73
2024/03/25 03:47:36;;;;;;;;;;;;;;;9.21;49.60;99248.19;4959378;27;98656;-73
2024/03/25 03:50:03;;;;;;;;;;;;;;;9.23;49.66;99254.06;4959158;27;98102;-68
2024/03/25 03:52:30;;;;;;;;;;;;;;;9.21;49.41;99254.34;4962820;27;98223;-73
2024/03/25 03:54:56;;;;;;;;;;;;;;;9.22;49.51;99255.94;4950050;27;98061;-68
2024/03/25 03:57:23;;;;;;;;;;;;;;;9.22;49.38;99255.94;4947261;27;97939;-68
2024/03/25 03:59:50;;;;;;;;;;;;;;;9.22;48.98;99255.16;4957468;27;97964;-68
2024/03/25 04:02:16;;;;;;;;;;;;;;;9.21;49.14;99259.72;4947177;27;100201;-73
2024/03/25 04:04:44;;;;;;;;;;;;;;;9.20;49.40;99260.03;4951034;27;99714;-68
2024/03/25 04:07:10;;;;;;;;;;;;;;;9.21;49.61;99261.63;4961920;27;98244;-72
2024/03/25 04:09:38;;;;;;;;;;;;;;;9.20;49.64;99268.09;4969442;27;98411;-68
2024/03/25 04:12:05;;;;;;;;;;;;;;;9.20;49.85;99268.09;4965672;27;98699;-72
2024/03/25 04:14:33;;;;;;;;;;;;;;;9.20;49.31;99273.47;4972911;27;98050;-73
2024/03/25 04:17:01;;;;;;;;;;;;;;;9.19;49.66;99267.28;4952082;27;98196;-68
2024/03/25 04:19:27;;;;;;;;;;;;;;;9.18;49.31;99271.06;4968487;27;98109;-68
2024/03/25 04:21:54;;;;;;;;;;;;;;;9.18;49.62;99278.31;4967077;27;99103;-67
2024/03/25 04:24:20;;;;;;;;;;;;;;;9.18;49.37;99271.06;4946485;27;99739;-68
2024/03/25 04:26:47;;;;;;;;;;;;;;;9.18;49.21;99289.88;4961634;27;98152;-73
2024/03/25 04:29:15;;;;;;;;;;;;;;;9.18;48.92;99294.47;4954281;27;98352;-68
2024/03/25 04:31:41;;;;;;;;;;;;;;;9.17;49.63;99292.88;4963291;27;98096;-73
2024/03/25 04:34:09;;;;;;;;;;;;;;;9.17;49.79;99290.19;4956584;28;98265;-68
2024/03/25 04:36:35;;;;;;;;;;;;;;;9.17;49.65;99306.31;4950641;28;98174;-69
2024/03/25 04:39:02;;;;;;;;;;;;;;;9.17;49.17;99311.69;4954899;27;98976;-73
2024/03/25 04:41:28;;;;;;;;;;;;;;;9.16;49.60;99307.41;4948033;27;97975;-68
2024/03/25 04:43:55;;;;;;;;;;;;;;;9.15;49.27;99314.63;4953179;27;98364;-68
2024/03/25 04:46:23;;;;;;;;;;;;;;;9.16;49.77;99323.53;4943213;27;98356;-73
2024/03/25 04:48:49;;;;;;;;;;;;;;;9.15;49.36;99320.00;4954510;27;98749;-73
2024/03/25 04:51:15;;;;;;;;;;;;;;;9.15;49.65;99321.91;4955352;27;98079;-68
2024/03/25 04:53:43;;;;;;;;;;;;;;;9.15;49.54;99330.78;4954687;27;98334;-68
2024/03/25 04:56:09;;;;;;;;;;;;;;;9.14;49.45;99342.63;4949687;27;100731;-68
2024/03/25 04:58:36;;;;;;;;;;;;;;;9.14;49.69;99344.50;4952409;27;98537;-67
2024/03/25 05:01:03;;;;;;;;;;;;;;;9.13;49.35;99346.41;4955355;27;98081;-68
2024/03/25 05:03:29;;;;;;;;;;;;;;;9.13;49.33;99346.41;4949379;27;99808;-73
2024/03/25 05:05:56;;;;;;;;;;;;;;;9.14;49.42;99347.19;4956165;27;98206;-73
2024/03/25 05:08:22;;;;;;;;;;;;;;;9.14;49.66;99349.88;4957132;27;98283;-68
2024/03/25 05:10:50;;;;;;;;;;;;;;;9.13;49.64;99351.78;4983014;27;98969;-68
2024/03/25 05:13:16;;;;;;;;;;;;;;;9.13;49.87;99361.75;4963678;27;98104;-68
2024/03/25 05:15:50;;;;;;;;;;;;;;;9.13;49.21;99367.91;4966234;27;97980;-73
2024/03/25 05:18:18;;;;;;;;;;;;;;;9.13;49.45;99367.91;4950855;27;98036;-68
2024/03/25 05:20:45;;;;;;;;;;;;;;;9.14;49.61;99374.09;4969266;27;99356;-67
2024/03/25 05:23:12;;;;;;;;;;;;;;;9.14;49.14;99374.88;4953987;27;98587;-68
2024/03/25 05:25:38;;;;;;;;;;;;;;;9.13;49.25;99383.25;4949583;27;98298;-67
2024/03/25 05:28:07;;;;;;;;;;;;;;;9.14;49.74;99384.84;4952782;27;100915;-73
2024/03/25 05:30:33;;;;;;;;;;;;;;;9.14;49.59;99388.31;4975416;27;98249;-68
2024/03/25 05:33:00;;;;;;;;;;;;;;;9.15;49.83;99386.44;4954790;27;99441;-73
2024/03/25 05:35:27;;;;;;;;;;;;;;;9.16;49.76;99394.25;4953342;27;99506;-68
2024/03/25 05:37:55;;;;;;;;;;;;;;;9.17;49.65;99395.84;4950431;27;98171;-68
2024/03/25 05:40:21;;;;;;;;;;;;;;;9.17;49.52;99395.84;4957270;27;97951;-73
2024/03/25 05:42:48;;;;;;;;;;;;;;;9.19;49.04;99401.72;4966312;27;98337;-73
2024/03/25 05:45:15;;;;;;;;;;;;;;;9.20;49.40;99402.53;4956074;27;99427;-73
2024/03/25 05:47:42;;;;;;;;;;;;;;;9.22;49.95;99408.41;4952286;27;99382;-68
2024/03/25 05:50:09;;;;;;;;;;;;;;;9.21;49.30;99404.13;4966567;27;99269;-73
2024/03/25 05:52:36;;;;;;;;;;;;;;;9.22;49.81;99411.09;4954133;27;97977;-72
2024/03/25 05:55:03;;;;;;;;;;;;;;;9.23;48.86;99410.81;4948168;27;98035;-72
2024/03/25 05:57:30;;;;;;;;;;;;;;;9.24;49.58;99415.13;4952803;27;98075;-72
2024/03/25 05:59:56;;;;;;;;;;;;;;;9.25;49.56;99418.63;4949571;27;98398;-72
2024/03/25 06:02:24;;;;;;;;;;;;;;;9.25;49.48;99424.78;4948959;27;98936;-67
2024/03/25 06:04:50;;;;;;;;;;;;;;;9.25;49.15;99432.88;4950363;27;100278;-67
2024/03/25 06:07:17;;;;;;;;;;;;;;;9.25;49.10;99424.78;4949679;27;98056;-67
2024/03/25 06:09:44;;;;;;;;;;;;;;;9.27;49.63;99427.19;4946029;27;98151;-67
2024/03/25 06:12:13;;;;;;;;;;;;;;;9.27;49.34;99440.63;4962873;27;98339;-73
2024/03/25 06:14:39;;;;;;;;;;;;;;;9.28;49.27;99443.06;4967623;27;99471;-72
2024/03/25 06:17:06;;;;;;;;;;;;;;;9.28;49.31;99443.06;4961291;27;98116;-67
2024/03/25 06:19:33;;;;;;;;;;;;;;;9.27;49.31;99441.44;4948355;27;98515;-67
2024/03/25 06:22:00;;;;;;;;;;;;;;;9.30;49.54;99451.63;4975150;27;98386;-67
2024/03/25 06:24:27;;;;;;;;;;;;;;;9.33;49.25;99461.03;4950603;27;98559;-67
2024/03/25 06:26:53;;;;;;;;;;;;;;;9.37;50.00;99458.59;4949757;27;98245;-71
2024/03/25 06:29:22;;;;;;;;;;;;;;;9.41;48.96;99465.00;4942995;27;98319;-73
2024/03/25 06:34:33;;;;;;;;;;;;;;;9.41;49.53;99468.50;4959813;27;98291;-72
2024/03/25 06:37:00;;;;;;;;;;;;;;;9.42;49.26;99474.66;4960218;27;98002;-67
2024/03/25 06:39:26;;;;;;;;;;;;;;;9.43;49.66;99479.78;4948513;27;98995;-72
2024/03/25 06:41:52;;;;;;;;;;;;;;;9.42;48.98;99486.22;4946047;27;98343;-72
2024/03/25 06:44:19;;;;;;;;;;;;;;;9.43;49.26;99492.41;4951658;27;98673;-72
2024/03/25 06:46:46;;;;;;;;;;;;;;;9.43;49.36;99492.41;4950883;27;98454;-67
2024/03/25 06:49:12;;;;;;;;;;;;;;;9.44;49.43;99494.03;4946366;27;98769;-72
2024/03/25 06:51:39;;;;;;;;;;;;;;;9.45;49.21;99493.72;4959330;27;98412;-67
2024/03/25 06:54:07;;;;;;;;;;;;;;;9.50;49.52;99499.06;4962772;27;98510;-67
2024/03/25 06:56:33;;;;;;;;;;;;;;;9.57;49.06;99499.53;4949983;27;98659;-72
2024/03/25 06:59:01;;;;;;;;;;;;;;;9.62;49.34;99509.44;4944041;27;98093;-72
2024/03/25 07:01:28;;;;;;;;;;;;;;;9.64;49.59;99509.19;4946125;27;103038;-71
2024/03/25 07:03:55;;;;;;;;;;;;;;;9.65;49.12;99510.78;4945212;27;98932;-72
2024/03/25 07:06:25;;;;;;;;;;;;;;;9.67;48.68;99508.59;4944054;27;98141;-72
2024/03/25 07:08:51;;;;;;;;;;;;;;;9.69;48.77;99526.06;4949175;27;98173;-71
2024/03/25 07:11:18;;;;;;;;;;;;;;;9.74;49.47;99517.94;4952357;27;98429;-67
2024/03/25 07:13:44;;;;;;;;;;;;;;;9.77;49.51;99525.44;4947270;27;98104;-71
2024/03/25 07:16:14;;;;;;;;;;;;;;;9.84;49.53;99525.13;4945999;27;98157;-68
2024/03/25 07:18:40;;;;;;;;;;;;;;;9.88;48.90;99528.03;4947416;27;98086;-73
2024/03/25 07:21:07;;;;;;;;;;;;;;;9.91;48.98;99533.66;4943136;27;98357;-68
2024/03/25 07:23:35;;;;;;;;;;;;;;;9.94;49.45;99532.28;4958074;27;98964;-73
2024/03/25 07:26:03;;;;;;;;;;;;;;;9.96;49.11;99530.91;4947455;27;98357;-68
2024/03/25 07:28:29;;;;;;;;;;;;;;;10.02;48.81;99531.63;4944112;27;98655;-68
2024/03/25 07:30:56;;;;;;;;;;;;;;;10.05;48.69;99542.66;4944648;27;100200;-72
2024/03/25 07:33:23;;;;;;;;;;;;;;;10.11;49.22;99543.41;4939558;27;98133;-73
2024/03/25 07:35:50;;;;;;;;;;;;;;;10.17;49.04;99536.88;4964472;27;98264;-67
2024/03/25 07:38:16;;;;;;;;;;;;;;;10.23;49.03;99553.78;4938147;27;98651;-73
2024/03/25 07:40:43;;;;;;;;;;;;;;;10.29;49.02;99548.06;4958939;27;98880;-73
2024/03/25 07:43:10;;;;;;;;;;;;;;;10.36;48.92;99555.00;4942008;27;98220;-73
2024/03/25 07:45:37;;;;;;;;;;;;;;;10.41;48.80;99547.66;4943400;27;100395;-73
2024/03/25 07:48:04;;;;;;;;;;;;;;;10.47;49.05;99551.91;4948235;27;98222;-73
2024/03/25 07:50:30;;;;;;;;;;;;;;;10.56;49.02;99552.84;4946351;27;98003;-68
2024/03/25 07:52:57;;;;;;;;;;;;;;;10.61;48.63;99567.34;4949089;27;98197;-68
2024/03/25 07:55:24;;;;;;;;;;;;;;;10.63;49.20;99565.19;4945804;27;98436;-73
2024/03/25 07:57:50;;;;;;;;;;;;;;;10.64;48.90;99558.69;4944408;27;97969;-73
2024/03/25 08:00:17;;;;;;;;;;;;;;;10.68;48.96;99574.00;4962717;27;98507;-73
2024/03/25 08:02:43;;;;;;;;;;;;;;;10.69;48.74;99572.94;4947037;27;98440;-68
2024/03/25 08:05:11;;;;;;;;;;;;;;;10.72;49.06;99572.31;4938654;28;98324;-73
2024/03/25 08:07:38;;;;;;;;;;;;;;;10.73;48.84;99582.03;4949648;27;98091;-68
2024/03/25 08:10:05;;;;;;;;;;;;;;;10.71;49.31;99580.72;4949996;27;98289;-68
2024/03/25 08:12:32;;;;;;;;;;;;;;;10.70;49.17;99579.91;4945656;27;100302;-68
2024/03/25 08:14:58;;;;;;;;;;;;;;;10.74;49.29;99593.63;4956119;27;98073;-73
2024/03/25 08:17:25;;;;;;;;;;;;;;;10.71;48.86;99586.91;4950978;27;98234;-68
2024/03/25 08:19:52;;;;;;;;;;;;;;;10.72;48.90;99593.09;4948805;27;98894;-68
2024/03/25 08:22:20;;;;;;;;;;;;;;;10.74;48.89;99591.72;4951216;27;98125;-73
2024/03/25 08:24:47;;;;;;;;;;;;;;;10.78;48.78;99597.34;4947945;27;100267;-68
2024/03/25 08:27:15;;;;;;;;;;;;;;;10.82;48.95;99596.47;4941485;27;98900;-74
2024/03/25 08:29:41;;;;;;;;;;;;;;;10.89;49.12;99598.81;4945856;27;98322;-73
2024/03/25 08:32:08;;;;;;;;;;;;;;;10.94;48.79;99595.25;4948474;27;98234;-73
2024/03/25 08:34:35;;;;;;;;;;;;;;;10.96;49.08;99599.25;4966218;27;98119;-68
2024/03/25 08:37:02;;;;;;;;;;;;;;;11.05;48.99;99596.72;4955025;27;98502;-68
2024/03/25 08:39:29;;;;;;;;;;;;;;;11.12;48.77;99602.56;4948507;27;98145;-68
2024/03/25 08:41:55;;;;;;;;;;;;;;;11.21;48.76;99602.69;4950824;27;99432;-73
2024/03/25 08:44:22;;;;;;;;;;;;;;;11.22;48.82;99612.38;4945827;27;98900;-68
2024/03/25 08:46:48;;;;;;;;;;;;;;;11.22;48.61;99617.78;4953697;27;98513;-74
2024/03/25 08:49:16;;;;;;;;;;;;;;;11.23;48.67;99609.38;4950146;27;98491;-73
2024/03/25 08:51:42;;;;;;;;;;;;;;;11.28;49.08;99614.72;4945858;27;101491;-68
2024/03/25 08:54:09;;;;;;;;;;;;;;;11.28;48.97;99620.13;4952360;27;98450;-74
2024/03/25 08:56:36;;;;;;;;;;;;;;;11.28;49.04;99625.50;4949129;27;98295;-68
2024/03/25 08:59:03;;;;;;;;;;;;;;;11.29;48.91;99624.41;4943328;27;98508;-68
2024/03/25 09:01:30;;;;;;;;;;;;;;;11.29;48.73;99629.00;4954630;27;98418;-74
2024/03/25 09:03:57;;;;;;;;;;;;;;;11.33;48.83;99621.13;4962247;27;99358;-68
2024/03/25 09:06:23;;;;;;;;;;;;;;;11.39;48.69;99631.53;4945499;27;99436;-68
2024/03/25 09:11:35;;;;;;;;;;;;;;;11.39;48.89;99645.03;4965495;27;98418;-74
2024/03/25 09:14:04;;;;;;;;;;;;;;;11.39;48.93;99641.53;4953357;27;98144;-68
2024/03/25 09:16:30;;;;;;;;;;;;;;;11.45;49.06;99648.47;4954050;27;98705;-68
2024/03/25 09:18:58;;;;;;;;;;;;;;;11.47;49.09;99647.06;4945442;27;98014;-74
2024/03/25 09:21:27;;;;;;;;;;;;;;;11.48;48.92;99651.41;4951279;27;98951;-68
2024/03/25 09:23:55;;;;;;;;;;;;;;;11.48;48.86;99651.41;4929902;27;99170;-73
2024/03/25 09:26:21;;;;;;;;;;;;;;;11.48;48.97;99654.09;4962707;27;99269;-73
2024/03/25 09:28:49;;;;;;;;;;;;;;;11.48;48.87;99654.09;4946547;27;100986;-68
2024/03/25 09:31:16;;;;;;;;;;;;;;;11.44;48.84;99666.56;4940360;27;98197;-68
2024/03/25 09:33:42;;;;;;;;;;;;;;;11.44;49.05;99660.38;4950052;27;98156;-74
2024/03/25 09:36:11;;;;;;;;;;;;;;;11.48;49.00;99681.09;4953985;27;98778;-68
2024/03/25 09:38:37;;;;;;;;;;;;;;;11.53;48.82;99681.00;4958528;27;98524;-73
2024/03/25 09:41:03;;;;;;;;;;;;;;;11.66;48.66;99679.44;4950403;27;99332;-67
2024/03/25 09:43:36;;;;;;;;;;;;;;;11.76;48.50;99673.91;4956239;27;98612;-73
2024/03/25 09:46:02;;;;;;;;;;;;;;;11.82;48.79;99673.81;4947398;27;99128;-73
2024/03/25 09:48:29;;;;;;;;;;;;;;;12.01;48.33;99683.53;4975395;27;99625;-73
2024/03/25 09:50:55;;;;;;;;;;;;;;;12.14;48.34;99683.84;4957693;27;98504;-68
2024/03/25 09:53:22;;;;;;;;;;;;;;;12.26;48.35;99682.31;4963414;27;98214;-73
2024/03/25 09:55:48;;;;;;;;;;;;;;;12.27;48.43;99685.81;4952014;27;98367;-73
2024/03/25 09:58:18;;;;;;;;;;;;;;;12.34;48.40;99688.94;4944291;27;98458;-68
2024/03/25 10:00:45;;;;;;;;;;;;;;;12.47;48.35;99690.03;4948478;27;98102;-73
2024/03/25 10:03:13;;;;;;;;;;;;;;;12.57;48.50;99697.16;4944320;27;98463;-68
2024/03/25 10:05:40;;;;;;;;;;;;;;;12.67;48.13;99692.38;4946376;27;98168;-73
2024/03/25 10:08:06;;;;;;;;;;;;;;;12.76;48.17;99695.16;4943502;27;99623;-74
2024/03/25 10:10:36;;;;;;;;;;;;;;;12.87;48.31;99687.66;4961953;27;98272;-68
2024/03/25 10:13:04;;;;;;;;;;;;;;;13.03;48.31;99692.44;4945811;27;103410;-67
2024/03/25 10:15:32;;;;;;;;;;;;;;;13.02;48.35;99696.28;4944381;27;98376;-73
2024/03/25 10:17:58;;;;;;;;;;;;;;;13.08;48.25;99688.03;4964368;27;100921;-73
2024/03/25 10:20:25;;;;;;;;;;;;;;;13.10;48.20;99697.47;4960457;27;99442;-73
2024/03/25 10:22:54;;;;;;;;;;;;;;;13.31;48.26;99694.34;4945994;27;98459;-73
2024/03/25 10:25:26;;;;;;;;;;;;;;;13.60;47.73;99696.72;4949780;27;100009;-73
2024/03/25 10:27:59;;;;;;;;;;;;;;;13.87;47.84;99693.91;4946983;27;100067;-73
2024/03/25 10:30:27;;;;;;;;;;;;;;;14.18;47.41;99699.34;4978677;27;98305;-68
2024/03/25 10:33:03;;;;;;;;;;;;;;;14.53;47.14;99693.34;4955184;27;98193;-73
2024/03/25 10:35:35;;;;;;;;;;;;;;;14.95;47.03;99698.16;4965908;27;98460;-68
2024/03/25 10:38:05;;;;;;;;;;;;;;;15.28;46.69;99691.50;4944952;27;98273;-68
2024/03/25 10:40:33;;;;;;;;;;;;;;;15.34;47.19;99693.78;4965359;27;98127;-74
2024/03/25 10:43:08;;;;;;;;;;;;;;;15.68;46.96;99695.75;4949571;27;99769;-68
2024/03/25 10:45:37;;;;;;;;;;;;;;;15.91;47.00;99692.84;4957554;27;98447;-74
2024/03/25 10:48:17;;;;;;;;;;;;;;;16.08;46.94;99678.44;4958746;27;98290;-68
2024/03/25 10:50:45;;;;;;;;;;;;;;;16.32;46.90;99686.88;4944500;27;98318;-68
2024/03/25 10:53:12;;;;;;;;;;;;;;;16.44;46.82;99687.00;4942985;27;98158;-74
2024/03/25 10:55:38;;;;;;;;;;;;;;;16.42;47.00;99700.09;4950501;27;98335;-68
2024/03/25 10:58:06;;;;;;;;;;;;;;;16.45;47.21;99701.38;4948400;27;98576;-68
2024/03/25 11:00:33;;;;;;;;;;;;;;;16.46;47.27;99694.81;4948275;27;99015;-73
2024/03/25 11:03:00;;;;;;;;;;;;;;;16.44;47.46;99697.88;4948206;27;98465;-68
2024/03/25 11:05:27;;;;;;;;;;;;;;;16.44;47.49;99695.16;4948935;27;98560;-73
2024/03/25 11:07:53;;;;;;;;;;;;;;;16.42;47.51;99697.38;4967084;27;97922;-68
2024/03/25 11:10:20;;;;;;;;;;;;;;;16.39;47.66;99700.78;4949239;27;99450;-74
2024/03/25 11:12:46;;;;;;;;;;;;;;;16.28;47.83;99699.50;4965581;27;98645;-68
2024/03/25 11:15:12;;;;;;;;;;;;;;;16.23;47.70;99696.16;4944775;27;111356;-68
2024/03/25 11:17:38;;;;;;;;;;;;;;;16.29;47.86;99692.94;4947325;27;98182;-68
2024/03/25 11:20:11;;;;;;;;;;;;;;;16.45;47.58;99691.31;4951594;27;103438;-68
2024/03/25 11:22:49;;;;;;;;;;;;;;;16.62;47.36;99689.63;4962957;27;98257;-68
2024/03/25 11:25:16;;;;;;;;;;;;;;;16.67;47.48;99689.47;4946708;27;98997;-74
2024/03/25 11:27:43;;;;;;;;;;;;;;;16.62;47.69;99686.91;4945196;27;98260;-74
2024/03/25 11:30:10;;;;;;;;;;;;;;;16.62;47.68;99698.63;4961610;27;104585;-68
2024/03/25 11:32:53;;;;;;;;;;;;;;;16.64;47.71;99693.63;4964743;27;98586;-68
2024/03/25 11:35:19;;;;;;;;;;;;;;;16.71;47.59;99689.63;4957631;27;98984;-68
2024/03/25 11:37:45;;;;;;;;;;;;;;;16.75;47.72;99685.94;4952117;27;99481;-68
2024/03/25 11:40:14;;;;;;;;;;;;;;;16.92;47.40;99693.22;4959313;27;98632;-74
2024/03/25 11:42:40;;;;;;;;;;;;;;;17.04;47.34;99692.53;4942760;27;98405;-74
2024/03/25 11:45:07;;;;;;;;;;;;;;;17.17;47.36;99691.47;4946742;27;107944;-74
2024/03/25 11:47:33;;;;;;;;;;;;;;;17.21;47.43;99688.91;4949063;27;98150;-69
2024/03/25 11:49:59;;;;;;;;;;;;;;;17.22;47.61;99683.13;4946452;27;106087;-68
2024/03/25 11:52:31;;;;;;;;;;;;;;;17.12;47.53;99687.03;4961057;27;97824;-69
2024/03/25 11:54:57;;;;;;;;;;;;;;;16.95;47.87;99699.94;4948714;27;98616;-74
2024/03/25 11:57:23;;;;;;;;;;;;;;;16.85;48.08;99692.94;4956505;27;105484;-69
2024/03/25 11:59:49;;;;;;;;;;;;;;;16.77;48.04;99688.34;4938023;27;127377;-74
2024/03/25 12:02:16;;;;;;;;;;;;;;;16.69;48.11;99693.44;4945980;27;98102;-74
2024/03/25 12:04:45;;;;;;;;;;;;;;;16.57;48.29;99689.81;4943165;27;110748;-74
2024/03/25 12:07:14;;;;;;;;;;;;;;;16.40;48.27;99691.47;4960878;27;119760;-68
2024/03/25 12:12:25;;;;;;;;;;;;;;;16.00;48.82;99692.84;4960605;27;98112;-68
2024/03/25 12:14:52;;;;;;;;;;;;;;;15.77;49.10;99705.81;4958827;27;124154;-73
2024/03/25 12:17:18;;;;;;;;;;;;;;;15.55;49.17;99704.00;4939658;27;98038;-73
2024/03/25 12:19:57;;;;;;;;;;;;;;;15.41;48.93;99707.69;4941067;27;98122;-68
2024/03/25 12:22:24;;;;;;;;;;;;;;;15.31;49.16;99707.97;4955036;27;97969;-68
2024/03/25 12:24:50;;;;;;;;;;;;;;;15.17;49.28;99713.56;4950131;27;103966;-68
2024/03/25 12:27:16;;;;;;;;;;;;;;;15.06;49.12;99706.00;4957298;27;98246;-68
2024/03/25 12:29:43;;;;;;;;;;;;;;;14.93;49.45;99705.00;4957825;27;98387;-68
2024/03/25 12:32:10;;;;;;;;;;;;;;;14.80;49.28;99706.72;4943896;27;98149;-74
2024/03/25 12:34:36;;;;;;;;;;;;;;;14.72;49.45;99702.06;4963691;27;98359;-73
2024/03/25 12:37:06;;;;;;;;;;;;;;;14.68;49.35;99706.50;4945258;27;126783;-73
2024/03/25 12:39:32;;;;;;;;;;;;;;;14.64;49.36;99708.25;4947462;27;99216;-68
2024/03/25 12:41:57;;;;;;;;;;;;;;;14.60;49.16;99718.13;4948337;27;116267;-68
2024/03/25 12:44:24;;;;;;;;;;;;;;;14.60;49.25;99708.06;4942936;27;128554;-73
2024/03/25 12:46:51;;;;;;;;;;;;;;;14.66;49.19;99709.53;4970564;27;98644;-68
2024/03/25 12:49:17;;;;;;;;;;;;;;;14.71;48.75;99709.41;4944678;27;128239;-73
2024/03/25 12:51:43;;;;;;;;;;;;;;;14.77;48.67;99707.34;4945547;27;116690;-68
2024/03/25 12:54:09;;;;;;;;;;;;;;;14.80;48.99;99705.91;4948411;27;127236;-73
2024/03/25 12:56:35;;;;;;;;;;;;;;;14.85;48.69;99713.91;4949599;27;100310;-73
2024/03/25 12:59:01;;;;;;;;;;;;;;;14.91;48.64;99708.03;4951168;27;111233;-73